Meteo Giornale » Osservazioni meteo Italia » Napoli-Capodichino

ore: 19:50 - Osservazioni Meteo Napoli-Capodichino
Lat. 40° 51' N Lon. 14° 18' E Alt. 88 metri s.l.m.

sereno Europe/Rome

16 °C

Sereno

Temp. 24 Ore

8 °C

19 °C

Sud/Sud-Ovest

7.4 Km/h

Dew point 11 °C

Umidità 72 %

Visibilità  10 Km

Il sole sorge alle ore 06:06

Il sole tramonta alle ore 19:54

Data e Ora Cielo e Fenomeni T °C DP °C Um. % Pres. hPa Vis. km Vento km/h
Oggi h: 19:50 sereno Sereno 16 11 72 1015 10 S/SO 7.4
Oggi h: 19:20 sereno Sereno 17 12 72 1015 10 S/SO 9.3
Oggi h: 18:50 sereno Sereno 17 12 72 1015 10 S/SO 11.1
Oggi h: 18:20 poco_nuvoloso Poco Nuvoloso 18 12 67 1016 10 S/SO 9.3
Oggi h: 17:50 poco_nuvoloso Poco Nuvoloso 18 12 67 1016 10 S 13
Oggi h: 17:20 poco_nuvoloso Poco Nuvoloso 18 11 63 1016 10 S 13
Oggi h: 16:50 poco_nuvoloso Poco Nuvoloso 19 8 48 1016 10 SO 14.8
Oggi h: 16:20 poco_nuvoloso Poco Nuvoloso 19 5 39 1016 10 S/SO 16.7
Oggi h: 15:50 poco_nuvoloso Poco Nuvoloso 19 9 52 1016 10 SO 18.5
Oggi h: 15:20 poco_nuvoloso Poco Nuvoloso 18 11 63 1017 10 SO 20.3
Oggi h: 14:50 sereno Sereno 18 10 59 1017 10 S/SO 18.5
Oggi h: 14:20 sereno Sereno 18 9 55 1018 10 S/SO 18.5
Oggi h: 13:50 sereno Sereno 18 9 55 1018 10 S/SO 18.5
Oggi h: 13:20 sereno Sereno 18 4 39 1018 10 S/SO 16.7
Oggi h: 12:50 sereno Sereno 19 4 37 1018 10 S/SO 14.8
Oggi h: 12:20 sereno Sereno 19 -1 25 1018 10 S/SO 14.8
Oggi h: 11:50 sereno Sereno 19 -1 25 1018 10 S/SO 13
Oggi h: 11:20 sereno Sereno 19 3 34 1018 10 S 11.1
Oggi h: 10:20 sereno Sereno 18 2 34 1018 10 SO 11.1
Oggi h: 09:50 sereno Sereno 17 6 48 1018 10 N 3.7
Oggi h: 09:20 sereno Sereno 16 9 63 1018 10 N 3.7
Oggi h: 08:50 sereno Sereno 15 9 67 1018 10 N 3.7
Oggi h: 08:20 sereno Sereno 14 8 67 1018 10 N 3.7
Oggi h: 07:50 sereno Sereno 12 7 71 1018 10 N 3.7
Oggi h: 07:20 sereno Sereno 11 5 66 1018 10 N 3.7
Oggi h: 06:50 sereno Sereno 10 7 81 1018 10 N 0
Oggi h: 06:20 sereno Sereno 8 5 81 1018 10 N 3.7
Oggi h: 05:50 sereno Sereno 8 5 81 1018 10 N 3.7
Oggi h: 05:20 sereno Sereno 8 5 81 1018 10 N 3.7
Oggi h: 04:50 sereno Sereno 8 6 87 1018 10 N 3.7
Oggi h: 04:20 sereno Sereno 8 5 81 1018 10 N 3.7
Oggi h: 03:50 sereno Sereno 9 6 81 1018 10 N 1.8
Oggi h: 03:20 sereno Sereno 10 6 76 1018 10 N 1.8
Oggi h: 02:50 sereno Sereno 10 6 76 1018 10 N 1.8
Oggi h: 02:20 sereno Sereno 10 6 76 1018 10 N 0
Oggi h: 01:50 sereno Sereno 10 6 76 1019 10 N 0
Oggi h: 01:20 sereno Sereno 12 7 71 1019 10 N 0
Oggi h: 00:50 sereno Sereno 11 7 76 1019 10 N 1.8
Oggi h: 00:20 sereno Sereno 12 7 71 1019 10 N 1.8
Ieri h: 23:50 sereno Sereno 12 8 76 1019 10 N 0
Ieri h: 23:20 sereno Sereno 13 8 71 1019 10 N 3.7
Ieri h: 22:50 sereno Sereno 14 8 67 1019 10 N 3.7
Ieri h: 22:20 sereno Sereno 14 9 71 1019 10 N 5.5
Ieri h: 21:50 sereno Sereno 14 8 67 1019 10 O/NO 7.4
Ieri h: 21:20 sereno Sereno 15 8 62 1019 10 N 5.5
Ieri h: 20:50 sereno Sereno 15 8 62 1019 10 N 5.5